NCAR-RAP Real-Time Weather Data

Output produced by METARs form (12 May 2021  12:26 UTC)
found at http://weather.rap.ucar.edu/surface/
 
KRDG 121154Z 31010KT 10SM CLR 09/01 A3022 RMK AO2 SLP239 T00940006 10094 20044 53012
KRDG 121054Z 28003KT 10SM CLR 07/M01 A3021 RMK AO2 SLP235 T00721006
KRDG 120954Z 28006KT 10SM CLR 05/M02 A3019 RMK AO2 SLP228 T00501017
KRDG 120854Z AUTO 23004KT 10SM CLR 05/M02 A3018 RMK AO2 SLP227 T00501017 53001
KRDG 120754Z AUTO 30007KT 10SM CLR 07/M02 A3018 RMK AO2 SLP223 T00671022
KRDG 120654Z AUTO 30009KT 10SM CLR 07/M03 A3017 RMK AO2 SLP222 T00671028
KRDG 120554Z AUTO 29008KT 10SM CLR 09/M03 A3018 RMK AO2 SLP226 T00891033 10144 20083 51016
KRDG 120454Z AUTO 30008KT 10SM CLR 09/M04 A3018 RMK AO2 SLP225 T00891044 401890061
KRDG 120354Z AUTO 30007KT 10SM CLR 10/M04 A3016 RMK AO2 SLP219 T01001044
KRDG 120254Z 33009KT 10SM FEW090 12/M05 A3013 RMK AO2 SLP209 T01171050 53033
KRDG 120154Z 30008KT 10SM CLR 12/M02 A3010 RMK AO2 SLP198 T01221022
KRDG 120054Z 29010KT 10SM CLR 14/M03 A3007 RMK AO2 SLP187 T01391028
KRDG 112354Z 26009KT 10SM CLR 15/02 A3003 RMK AO2 SLP175 60000 T01500017 10183 20144 53006
KRDG 112254Z 27010G21KT 10SM FEW075 BKN090 16/03 A3003 RMK AO2 SLP172 T01610033
KRDG 112154Z 26009KT 10SM FEW070 BKN095 OVC110 16/03 A3002 RMK AO2 SLP170 T01610033
KRDG 112054Z 30007KT 10SM FEW050 BKN070 OVC090 16/05 A3002 RMK AO2 WSHFT 2007 RAB11E51 SLP170 P0000 60000 T01560050 55008
KRDG 112027Z 31010KT 10SM -RA BKN065 OVC080 15/04 A3002 RMK AO2 WSHFT 2007 RAB11 P0000 T01500044